sensor_id;sensor_type;location;lat;lon;timestamp;pressure;altitude;pressure_sealevel;temperature;humidity
6128;BME280;7073;42.672;23.256;2023-10-13T08:29:07;94980.91;;;20.70;52.26
6128;BME280;7073;42.672;23.256;2023-10-13T08:31:48;94989.91;;;20.84;52.00
6128;BME280;7073;42.672;23.256;2023-10-13T08:34:36;94980.84;;;20.50;52.24
6128;BME280;7073;42.672;23.256;2023-10-13T08:37:25;94976.66;;;20.64;51.04
6128;BME280;7073;42.672;23.256;2023-10-13T08:39:58;94967.91;;;20.68;50.91
6128;BME280;7073;42.672;23.256;2023-10-13T08:42:39;94961.97;;;20.26;52.76
6128;BME280;7073;42.672;23.256;2023-10-13T08:45:19;94941.28;;;20.23;52.33
6128;BME280;7073;42.672;23.256;2023-10-13T08:48:10;94969.22;;;20.71;51.54
6128;BME280;7073;42.672;23.256;2023-10-13T08:50:42;94964.00;;;21.11;50.47
6128;BME280;7073;42.672;23.256;2023-10-13T08:53:19;94970.13;;;21.07;50.54
6128;BME280;7073;42.672;23.256;2023-10-13T08:55:52;94969.84;;;21.44;49.78
6128;BME280;7073;42.672;23.256;2023-10-13T08:58:30;94961.63;;;21.20;50.09
6128;BME280;7073;42.672;23.256;2023-10-13T09:01:13;94961.00;;;21.93;48.78
6128;BME280;7073;42.672;23.256;2023-10-13T09:04:00;94960.63;;;22.15;48.53
6128;BME280;7073;42.672;23.256;2023-10-13T09:06:47;94950.75;;;22.26;47.96
6128;BME280;7073;42.672;23.256;2023-10-13T09:09:26;94949.22;;;22.69;46.80
6128;BME280;7073;42.672;23.256;2023-10-13T09:11:53;94956.00;;;22.90;47.02
6128;BME280;7073;42.672;23.256;2023-10-13T09:14:34;94959.50;;;23.19;46.95
6128;BME280;7073;42.672;23.256;2023-10-13T09:17:04;94961.94;;;23.49;45.65
6128;BME280;7073;42.672;23.256;2023-10-13T09:19:48;94953.22;;;23.44;45.83
6128;BME280;7073;42.672;23.256;2023-10-13T09:22:25;94950.66;;;23.57;45.09
6128;BME280;7073;42.672;23.256;2023-10-13T09:25:01;94953.94;;;24.02;44.26
6128;BME280;7073;42.672;23.256;2023-10-13T09:27:30;94950.69;;;24.28;43.49
6128;BME280;7073;42.672;23.256;2023-10-13T09:29:58;94928.47;;;24.75;41.53
6128;BME280;7073;42.672;23.256;2023-10-13T09:32:34;94938.06;;;25.46;40.85
6128;BME280;7073;42.672;23.256;2023-10-13T09:35:15;94938.22;;;25.95;39.72
6128;BME280;7073;42.672;23.256;2023-10-13T09:37:42;94936.34;;;25.96;38.62
6128;BME280;7073;42.672;23.256;2023-10-13T09:40:16;94929.63;;;26.12;38.62
6128;BME280;7073;42.672;23.256;2023-10-13T09:42:53;94916.16;;;26.80;37.03
6128;BME280;7073;42.672;23.256;2023-10-13T09:45:27;94921.72;;;26.21;36.56
6128;BME280;7073;42.672;23.256;2023-10-13T09:48:02;94917.91;;;25.53;37.15
6128;BME280;7073;42.672;23.256;2023-10-13T09:50:37;94908.63;;;25.92;36.30
6128;BME280;7073;42.672;23.256;2023-10-13T09:53:05;94915.84;;;26.46;36.19
6128;BME280;7073;42.672;23.256;2023-10-13T09:55:40;94907.53;;;25.66;36.99
6128;BME280;7073;42.672;23.256;2023-10-13T09:58:12;94913.19;;;25.64;36.99
6128;BME280;7073;42.672;23.256;2023-10-13T10:00:46;94915.59;;;26.20;36.28
6128;BME280;7073;42.672;23.256;2023-10-13T10:03:16;94908.38;;;26.56;34.82
6128;BME280;7073;42.672;23.256;2023-10-13T10:06:01;94903.16;;;26.87;34.90
6128;BME280;7073;42.672;23.256;2023-10-13T10:08:32;94905.13;;;26.59;36.04
6128;BME280;7073;42.672;23.256;2023-10-13T10:11:21;94902.53;;;27.34;33.94
6128;BME280;7073;42.672;23.256;2023-10-13T10:13:53;94899.88;;;27.12;34.24
6128;BME280;7073;42.672;23.256;2023-10-13T10:16:37;94888.22;;;26.37;35.14
6128;BME280;7073;42.672;23.256;2023-10-13T10:19:08;94890.31;;;27.20;34.61
6128;BME280;7073;42.672;23.256;2023-10-13T10:21:36;94890.00;;;27.74;33.27
6128;BME280;7073;42.672;23.256;2023-10-13T10:24:14;94881.88;;;26.82;33.73
6128;BME280;7073;42.672;23.256;2023-10-13T10:26:53;94879.25;;;27.66;33.88
6128;BME280;7073;42.672;23.256;2023-10-13T10:29:20;94879.16;;;28.36;33.12
6128;BME280;7073;42.672;23.256;2023-10-13T10:31:47;94874.16;;;28.69;32.18
6128;BME280;7073;42.672;23.256;2023-10-13T10:34:15;94878.00;;;28.11;31.69
6128;BME280;7073;42.672;23.256;2023-10-13T10:36:53;94863.97;;;28.06;32.30
6128;BME280;7073;42.672;23.256;2023-10-13T10:39:20;94869.41;;;28.74;32.09
6128;BME280;7073;42.672;23.256;2023-10-13T10:42:07;94864.94;;;28.18;32.78
6128;BME280;7073;42.672;23.256;2023-10-13T10:44:40;94872.22;;;27.78;32.81
6128;BME280;7073;42.672;23.256;2023-10-13T10:47:10;94865.88;;;28.14;31.86
6128;BME280;7073;42.672;23.256;2023-10-13T10:49:39;94862.72;;;28.12;30.42
6128;BME280;7073;42.672;23.256;2023-10-13T10:52:09;94868.41;;;27.79;30.45
6128;BME280;7073;42.672;23.256;2023-10-13T10:54:43;94864.28;;;27.65;30.27
6128;BME280;7073;42.672;23.256;2023-10-13T10:57:14;94860.69;;;27.39;30.64
6128;BME280;7073;42.672;23.256;2023-10-13T10:59:43;94863.06;;;27.40;30.49
6128;BME280;7073;42.672;23.256;2023-10-13T11:02:11;94859.50;;;27.00;31.18
6128;BME280;7073;42.672;23.256;2023-10-13T11:04:42;94861.38;;;27.53;30.92
6128;BME280;7073;42.672;23.256;2023-10-13T11:07:21;94856.91;;;28.27;30.28
6128;BME280;7073;42.672;23.256;2023-10-13T11:09:48;94856.28;;;28.38;29.56
6128;BME280;7073;42.672;23.256;2023-10-13T11:12:18;94839.13;;;27.83;30.36
6128;BME280;7073;42.672;23.256;2023-10-13T11:15:02;94830.03;;;28.01;29.96
6128;BME280;7073;42.672;23.256;2023-10-13T11:17:31;94839.91;;;28.48;29.65
6128;BME280;7073;42.672;23.256;2023-10-13T11:20:13;94841.50;;;28.75;29.71
6128;BME280;7073;42.672;23.256;2023-10-13T11:22:46;94840.06;;;28.43;29.61
6128;BME280;7073;42.672;23.256;2023-10-13T11:25:20;94833.13;;;28.34;30.32
6128;BME280;7073;42.672;23.256;2023-10-13T11:27:49;94825.56;;;28.62;29.45
6128;BME280;7073;42.672;23.256;2023-10-13T11:30:32;94827.47;;;28.70;29.57
6128;BME280;7073;42.672;23.256;2023-10-13T11:33:08;94828.03;;;29.09;29.49
6128;BME280;7073;42.672;23.256;2023-10-13T11:35:38;94816.72;;;28.78;29.43
6128;BME280;7073;42.672;23.256;2023-10-13T11:38:24;94814.16;;;28.99;29.18
6128;BME280;7073;42.672;23.256;2023-10-13T11:40:52;94821.06;;;29.17;28.68
6128;BME280;7073;42.672;23.256;2023-10-13T11:43:38;94814.19;;;29.45;27.76
6128;BME280;7073;42.672;23.256;2023-10-13T11:46:19;94807.72;;;30.34;27.57
6128;BME280;7073;42.672;23.256;2023-10-13T11:49:00;94807.16;;;29.99;27.35
6128;BME280;7073;42.672;23.256;2023-10-13T11:51:32;94813.75;;;29.81;27.25
6128;BME280;7073;42.672;23.256;2023-10-13T11:54:03;94809.47;;;29.80;27.99
6128;BME280;7073;42.672;23.256;2023-10-13T11:56:30;94809.84;;;30.49;26.74
6128;BME280;7073;42.672;23.256;2023-10-13T11:58:57;94814.69;;;30.76;25.98
6128;BME280;7073;42.672;23.256;2023-10-13T12:01:27;94808.50;;;30.97;26.63
6128;BME280;7073;42.672;23.256;2023-10-13T12:04:08;94806.41;;;31.14;25.38
6128;BME280;7073;42.672;23.256;2023-10-13T12:06:49;94793.84;;;30.03;26.50
6128;BME280;7073;42.672;23.256;2023-10-13T12:09:28;94784.00;;;30.36;26.60
6128;BME280;7073;42.672;23.256;2023-10-13T12:12:07;94788.88;;;31.08;24.99
6128;BME280;7073;42.672;23.256;2023-10-13T12:14:34;94780.03;;;31.20;25.37
6128;BME280;7073;42.672;23.256;2023-10-13T12:17:03;94796.03;;;31.37;25.81
6128;BME280;7073;42.672;23.256;2023-10-13T12:19:36;94787.06;;;30.79;26.36
6128;BME280;7073;42.672;23.256;2023-10-13T12:22:05;94781.88;;;30.95;25.92
6128;BME280;7073;42.672;23.256;2023-10-13T12:24:34;94784.41;;;31.24;25.76
6128;BME280;7073;42.672;23.256;2023-10-13T12:27:08;94778.78;;;30.84;25.31
6128;BME280;7073;42.672;23.256;2023-10-13T12:29:45;94774.66;;;30.34;26.38
6128;BME280;7073;42.672;23.256;2023-10-13T12:32:13;94779.22;;;30.74;25.40
6128;BME280;7073;42.672;23.256;2023-10-13T12:34:40;94776.41;;;31.04;25.43
6128;BME280;7073;42.672;23.256;2023-10-13T12:37:28;94769.91;;;31.50;24.75
6128;BME280;7073;42.672;23.256;2023-10-13T12:40:17;94772.63;;;30.51;24.54
6128;BME280;7073;42.672;23.256;2023-10-13T12:43:02;94771.06;;;31.40;24.19
6128;BME280;7073;42.672;23.256;2023-10-13T12:45:48;94768.25;;;30.79;24.24
6128;BME280;7073;42.672;23.256;2023-10-13T12:48:33;94762.41;;;30.45;25.99
6128;BME280;7073;42.672;23.256;2023-10-13T12:51:18;94767.88;;;31.46;24.80
6128;BME280;7073;42.672;23.256;2023-10-13T12:54:07;94763.47;;;32.54;23.26
6128;BME280;7073;42.672;23.256;2023-10-13T12:56:40;94759.00;;;31.46;24.30
6128;BME280;7073;42.672;23.256;2023-10-13T12:59:08;94760.31;;;32.00;23.77
6128;BME280;7073;42.672;23.256;2023-10-13T13:01:39;94754.72;;;31.69;23.28
6128;BME280;7073;42.672;23.256;2023-10-13T13:04:08;94753.59;;;30.89;23.59
6128;BME280;7073;42.672;23.256;2023-10-13T13:06:37;94756.16;;;32.03;23.90
6128;BME280;7073;42.672;23.256;2023-10-13T13:09:07;94748.06;;;31.18;24.68
6128;BME280;7073;42.672;23.256;2023-10-13T13:11:35;94752.63;;;31.06;24.64
6128;BME280;7073;42.672;23.256;2023-10-13T13:14:05;94750.94;;;31.58;24.83
6128;BME280;7073;42.672;23.256;2023-10-13T13:16:34;94742.25;;;30.83;24.88
6128;BME280;7073;42.672;23.256;2023-10-13T13:19:01;94756.91;;;31.07;24.74
6128;BME280;7073;42.672;23.256;2023-10-13T13:21:35;94745.25;;;31.15;24.24
6128;BME280;7073;42.672;23.256;2023-10-13T13:24:02;94751.50;;;30.95;24.88
6128;BME280;7073;42.672;23.256;2023-10-13T13:26:32;94756.59;;;31.32;25.22
6128;BME280;7073;42.672;23.256;2023-10-13T13:28:58;94760.19;;;31.24;24.44
6128;BME280;7073;42.672;23.256;2023-10-13T13:31:25;94750.44;;;31.80;24.66
6128;BME280;7073;42.672;23.256;2023-10-13T13:33:54;94749.06;;;31.38;24.08
6128;BME280;7073;42.672;23.256;2023-10-13T13:36:21;94754.16;;;31.39;24.59
6128;BME280;7073;42.672;23.256;2023-10-13T13:38:48;94751.06;;;32.14;23.42
6128;BME280;7073;42.672;23.256;2023-10-13T13:41:17;94749.59;;;32.28;23.23
6128;BME280;7073;42.672;23.256;2023-10-13T13:43:47;94752.09;;;33.04;22.87
6128;BME280;7073;42.672;23.256;2023-10-13T13:46:24;94745.59;;;33.05;22.91
6128;BME280;7073;42.672;23.256;2023-10-13T13:48:53;94749.53;;;32.96;23.12
6128;BME280;7073;42.672;23.256;2023-10-13T13:51:25;94755.41;;;32.70;22.48
6128;BME280;7073;42.672;23.256;2023-10-13T13:53:57;94752.97;;;33.08;23.21
6128;BME280;7073;42.672;23.256;2023-10-13T13:56:25;94757.53;;;33.20;22.52
6128;BME280;7073;42.672;23.256;2023-10-13T13:58:55;94752.28;;;33.11;22.21
6128;BME280;7073;42.672;23.256;2023-10-13T14:01:22;94749.78;;;32.35;22.80
6128;BME280;7073;42.672;23.256;2023-10-13T14:03:51;94755.41;;;31.78;24.08
6128;BME280;7073;42.672;23.256;2023-10-13T14:06:23;94737.72;;;32.45;23.39
6128;BME280;7073;42.672;23.256;2023-10-13T14:08:50;94746.06;;;31.76;23.81
6128;BME280;7073;42.672;23.256;2023-10-13T14:11:20;94742.78;;;32.06;23.60
6128;BME280;7073;42.672;23.256;2023-10-13T14:14:03;94745.50;;;31.94;23.12
6128;BME280;7073;42.672;23.256;2023-10-13T14:16:37;94739.41;;;31.97;23.77
6128;BME280;7073;42.672;23.256;2023-10-13T14:19:10;94744.00;;;32.49;22.19
6128;BME280;7073;42.672;23.256;2023-10-13T14:21:36;94746.59;;;31.93;23.44
6128;BME280;7073;42.672;23.256;2023-10-13T14:24:04;94738.56;;;31.57;24.01
6128;BME280;7073;42.672;23.256;2023-10-13T14:26:38;94740.91;;;31.46;24.06
6128;BME280;7073;42.672;23.256;2023-10-13T14:29:06;94746.78;;;30.38;25.08
6128;BME280;7073;42.672;23.256;2023-10-13T14:31:35;94739.22;;;30.11;25.58
6128;BME280;7073;42.672;23.256;2023-10-13T14:34:03;94744.59;;;30.11;26.16
6128;BME280;7073;42.672;23.256;2023-10-13T14:36:30;94749.06;;;30.48;26.17
6128;BME280;7073;42.672;23.256;2023-10-13T14:39:00;94747.75;;;30.54;25.44
6128;BME280;7073;42.672;23.256;2023-10-13T14:41:27;94738.81;;;29.50;26.86
6128;BME280;7073;42.672;23.256;2023-10-13T14:43:55;94743.44;;;30.00;26.92
6128;BME280;7073;42.672;23.256;2023-10-13T14:46:32;94741.19;;;29.81;27.19
6128;BME280;7073;42.672;23.256;2023-10-13T14:49:01;94730.81;;;29.71;27.33
6128;BME280;7073;42.672;23.256;2023-10-13T14:51:28;94733.91;;;29.52;27.69
6128;BME280;7073;42.672;23.256;2023-10-13T14:53:57;94718.34;;;28.99;28.75
6128;BME280;7073;42.672;23.256;2023-10-13T14:56:25;94733.34;;;29.38;27.90
6128;BME280;7073;42.672;23.256;2023-10-13T14:58:53;94732.66;;;29.03;27.77
6128;BME280;7073;42.672;23.256;2023-10-13T15:01:22;94732.19;;;29.10;27.93
6128;BME280;7073;42.672;23.256;2023-10-13T15:03:51;94725.97;;;29.27;28.31
6128;BME280;7073;42.672;23.256;2023-10-13T15:06:21;94735.78;;;28.76;28.96
6128;BME280;7073;42.672;23.256;2023-10-13T15:08:51;94728.03;;;26.85;30.79
6128;BME280;7073;42.672;23.256;2023-10-13T15:11:20;94729.47;;;27.30;30.75
6128;BME280;7073;42.672;23.256;2023-10-13T15:13:47;94713.38;;;25.93;33.02
6128;BME280;7073;42.672;23.256;2023-10-13T15:16:16;94725.31;;;26.09;32.64
6128;BME280;7073;42.672;23.256;2023-10-13T15:18:44;94740.16;;;25.66;33.68
6128;BME280;7073;42.672;23.256;2023-10-13T15:21:18;94736.00;;;26.32;33.70
6128;BME280;7073;42.672;23.256;2023-10-13T15:23:47;94741.88;;;25.84;34.19
6128;BME280;7073;42.672;23.256;2023-10-13T15:26:14;94734.63;;;25.98;34.33
6128;BME280;7073;42.672;23.256;2023-10-13T15:28:40;94733.34;;;25.06;35.21
6128;BME280;7073;42.672;23.256;2023-10-13T15:31:14;94734.09;;;24.79;36.23
6128;BME280;7073;42.672;23.256;2023-10-13T15:34:03;94734.03;;;24.98;35.39
6128;BME280;7073;42.672;23.256;2023-10-13T15:36:33;94734.47;;;24.72;35.49
6128;BME280;7073;42.672;23.256;2023-10-13T15:39:00;94733.69;;;24.40;37.02
6128;BME280;7073;42.672;23.256;2023-10-13T15:41:28;94741.66;;;24.72;37.14
6128;BME280;7073;42.672;23.256;2023-10-13T15:43:55;94745.09;;;24.59;37.17
6128;BME280;7073;42.672;23.256;2023-10-13T15:46:22;94745.31;;;24.30;37.20
6128;BME280;7073;42.672;23.256;2023-10-13T15:48:50;94743.53;;;24.25;38.18
6128;BME280;7073;42.672;23.256;2023-10-13T15:51:18;94742.66;;;23.93;39.88
6128;BME280;7073;42.672;23.256;2023-10-13T15:53:46;94740.06;;;23.69;40.37
6128;BME280;7073;42.672;23.256;2023-10-13T15:56:14;94749.78;;;23.36;41.22
6128;BME280;7073;42.672;23.256;2023-10-13T15:58:42;94749.25;;;22.87;43.13
6128;BME280;7073;42.672;23.256;2023-10-13T16:01:11;94747.25;;;22.74;43.37
6128;BME280;7073;42.672;23.256;2023-10-13T16:03:39;94743.91;;;22.29;45.29
6128;BME280;7073;42.672;23.256;2023-10-13T16:06:08;94752.69;;;21.91;46.33
6128;BME280;7073;42.672;23.256;2023-10-13T16:08:37;94764.19;;;21.71;46.54
6128;BME280;7073;42.672;23.256;2023-10-13T16:11:09;94768.22;;;21.64;47.12
6128;BME280;7073;42.672;23.256;2023-10-13T16:13:39;94768.97;;;20.95;47.79
6128;BME280;7073;42.672;23.256;2023-10-13T16:16:06;94771.69;;;20.65;47.96
6128;BME280;7073;42.672;23.256;2023-10-13T16:18:40;94780.16;;;20.47;48.75
6128;BME280;7073;42.672;23.256;2023-10-13T16:21:09;94777.22;;;20.23;49.60
6128;BME280;7073;42.672;23.256;2023-10-13T16:23:38;94779.06;;;20.02;49.54
6128;BME280;7073;42.672;23.256;2023-10-13T16:26:05;94774.78;;;19.86;50.19
6128;BME280;7073;42.672;23.256;2023-10-13T16:28:34;94782.47;;;19.78;51.61
6128;BME280;7073;42.672;23.256;2023-10-13T16:31:02;94788.25;;;19.60;51.42
6128;BME280;7073;42.672;23.256;2023-10-13T16:33:28;94789.72;;;19.35;52.98
6128;BME280;7073;42.672;23.256;2023-10-13T16:35:57;94783.19;;;19.53;52.97
6128;BME280;7073;42.672;23.256;2023-10-13T16:38:24;94772.31;;;19.49;52.78
6128;BME280;7073;42.672;23.256;2023-10-13T16:40:53;94783.69;;;19.50;52.06
6128;BME280;7073;42.672;23.256;2023-10-13T16:43:20;94784.81;;;19.12;54.19
6128;BME280;7073;42.672;23.256;2023-10-13T16:45:49;94792.34;;;19.30;54.63
6128;BME280;7073;42.672;23.256;2023-10-13T16:48:16;94794.72;;;19.32;54.24
6128;BME280;7073;42.672;23.256;2023-10-13T16:50:44;94794.88;;;19.15;54.96
6128;BME280;7073;42.672;23.256;2023-10-13T16:53:11;94790.00;;;18.92;55.12
6128;BME280;7073;42.672;23.256;2023-10-13T16:55:38;94795.69;;;18.69;56.33
6128;BME280;7073;42.672;23.256;2023-10-13T16:58:07;94790.41;;;18.69;57.60
6128;BME280;7073;42.672;23.256;2023-10-13T17:00:37;94791.72;;;18.66;57.14
6128;BME280;7073;42.672;23.256;2023-10-13T17:03:06;94786.47;;;18.71;57.17
6128;BME280;7073;42.672;23.256;2023-10-13T17:05:39;94791.25;;;18.74;57.86
6128;BME280;7073;42.672;23.256;2023-10-13T17:08:06;94785.78;;;18.49;57.56
6128;BME280;7073;42.672;23.256;2023-10-13T17:10:33;94784.63;;;18.40;59.30
6128;BME280;7073;42.672;23.256;2023-10-13T17:13:01;94797.00;;;18.66;58.08
6128;BME280;7073;42.672;23.256;2023-10-13T17:15:30;66884.56;;;-143.30;100.00
6128;BME280;7073;42.672;23.256;2023-10-13T17:17:59;94777.56;;;18.46;58.37
6128;BME280;7073;42.672;23.256;2023-10-13T17:20:27;94800.03;;;18.48;58.95
6128;BME280;7073;42.672;23.256;2023-10-13T17:22:54;94804.41;;;18.38;59.58
6128;BME280;7073;42.672;23.256;2023-10-13T17:25:22;94807.94;;;18.48;59.13
6128;BME280;7073;42.672;23.256;2023-10-13T17:27:49;94809.59;;;18.27;59.24
6128;BME280;7073;42.672;23.256;2023-10-13T17:30:18;94798.78;;;18.29;59.75
6128;BME280;7073;42.672;23.256;2023-10-13T17:32:45;94795.66;;;18.32;59.96
6128;BME280;7073;42.672;23.256;2023-10-13T17:35:12;94811.78;;;18.36;60.51
6128;BME280;7073;42.672;23.256;2023-10-13T17:37:40;94802.47;;;18.28;59.89
6128;BME280;7073;42.672;23.256;2023-10-13T17:40:10;94815.34;;;18.19;59.84
6128;BME280;7073;42.672;23.256;2023-10-13T17:42:41;94810.84;;;18.20;59.13
6128;BME280;7073;42.672;23.256;2023-10-13T17:45:09;94812.78;;;18.29;60.30
6128;BME280;7073;42.672;23.256;2023-10-13T17:47:37;94817.97;;;18.19;59.91
6128;BME280;7073;42.672;23.256;2023-10-13T17:50:04;94813.25;;;17.95;60.86
6128;BME280;7073;42.672;23.256;2023-10-13T17:52:33;94812.88;;;17.86;62.42
6128;BME280;7073;42.672;23.256;2023-10-13T17:55:04;94813.06;;;17.75;62.23
6128;BME280;7073;42.672;23.256;2023-10-13T17:57:32;94817.78;;;17.73;62.55
6128;BME280;7073;42.672;23.256;2023-10-13T17:59:59;94809.13;;;17.34;63.34
6128;BME280;7073;42.672;23.256;2023-10-13T18:02:28;94803.28;;;17.10;65.13
6128;BME280;7073;42.672;23.256;2023-10-13T18:04:56;94806.97;;;17.09;65.41
6128;BME280;7073;42.672;23.256;2023-10-13T18:07:25;94809.38;;;17.32;63.06
6128;BME280;7073;42.672;23.256;2023-10-13T18:09:52;94824.88;;;17.50;62.21
6128;BME280;7073;42.672;23.256;2023-10-13T18:12:22;94781.97;;;17.33;60.68
6128;BME280;7073;42.672;23.256;2023-10-13T18:14:49;94821.63;;;17.43;61.20
6128;BME280;7073;42.672;23.256;2023-10-13T18:17:17;94817.22;;;17.27;61.89
6128;BME280;7073;42.672;23.256;2023-10-13T18:19:44;94835.19;;;17.13;62.88
6128;BME280;7073;42.672;23.256;2023-10-13T18:22:11;94821.94;;;16.87;63.20
6128;BME280;7073;42.672;23.256;2023-10-13T18:24:42;94830.16;;;16.74;64.72
6128;BME280;7073;42.672;23.256;2023-10-13T18:27:09;94805.78;;;16.62;64.72
6128;BME280;7073;42.672;23.256;2023-10-13T18:29:38;94828.41;;;16.79;63.92
6128;BME280;7073;42.672;23.256;2023-10-13T18:32:05;94828.41;;;16.63;64.49
6128;BME280;7073;42.672;23.256;2023-10-13T18:34:32;94838.78;;;16.69;63.21
6128;BME280;7073;42.672;23.256;2023-10-13T18:36:59;94844.53;;;16.83;62.72
6128;BME280;7073;42.672;23.256;2023-10-13T18:39:26;94811.94;;;16.67;61.70
6128;BME280;7073;42.672;23.256;2023-10-13T18:42:00;94845.81;;;16.80;61.50
6128;BME280;7073;42.672;23.256;2023-10-13T18:44:27;94839.03;;;16.68;62.76
6128;BME280;7073;42.672;23.256;2023-10-13T18:46:55;94849.38;;;16.58;63.32
6128;BME280;7073;42.672;23.256;2023-10-13T18:49:22;94825.38;;;16.71;62.23
6128;BME280;7073;42.672;23.256;2023-10-13T18:51:50;94852.66;;;16.81;61.86
6128;BME280;7073;42.672;23.256;2023-10-13T18:54:17;94841.50;;;16.58;62.71
6128;BME280;7073;42.672;23.256;2023-10-13T18:56:44;94839.63;;;16.25;62.82
6128;BME280;7073;42.672;23.256;2023-10-13T18:59:10;94836.50;;;16.11;63.68
6128;BME280;7073;42.672;23.256;2023-10-13T19:01:41;94853.81;;;16.24;63.89
6128;BME280;7073;42.672;23.256;2023-10-13T19:04:09;94843.28;;;15.79;66.06
6128;BME280;7073;42.672;23.256;2023-10-13T19:06:40;94838.75;;;15.91;66.21
6128;BME280;7073;42.672;23.256;2023-10-13T19:09:07;94837.75;;;15.92;65.13
6128;BME280;7073;42.672;23.256;2023-10-13T19:11:36;94841.38;;;15.74;66.64
6128;BME280;7073;42.672;23.256;2023-10-13T19:14:05;94838.94;;;15.84;65.78
6128;BME280;7073;42.672;23.256;2023-10-13T19:16:35;94839.34;;;15.93;65.68
6128;BME280;7073;42.672;23.256;2023-10-13T19:19:02;94847.66;;;15.73;65.64
6128;BME280;7073;42.672;23.256;2023-10-13T19:21:31;94836.97;;;15.52;66.69
6128;BME280;7073;42.672;23.256;2023-10-13T19:24:02;94842.66;;;15.60;66.06
6128;BME280;7073;42.672;23.256;2023-10-13T19:26:29;94743.78;;;14.86;67.71
6128;BME280;7073;42.672;23.256;2023-10-13T19:28:57;94839.50;;;15.47;67.47
6128;BME280;7073;42.672;23.256;2023-10-13T19:31:26;94826.97;;;15.49;66.71
6128;BME280;7073;42.672;23.256;2023-10-13T19:33:54;94823.75;;;15.47;67.51
6128;BME280;7073;42.672;23.256;2023-10-13T19:36:22;94813.44;;;15.57;66.81
6128;BME280;7073;42.672;23.256;2023-10-13T19:38:52;94832.34;;;15.70;66.37
6128;BME280;7073;42.672;23.256;2023-10-13T19:41:20;94827.16;;;15.59;65.83
6128;BME280;7073;42.672;23.256;2023-10-13T19:43:51;94827.16;;;15.59;66.56
6128;BME280;7073;42.672;23.256;2023-10-13T19:46:23;94824.16;;;15.67;65.72
6128;BME280;7073;42.672;23.256;2023-10-13T19:48:50;94821.44;;;15.62;66.58
6128;BME280;7073;42.672;23.256;2023-10-13T19:51:17;94828.00;;;15.48;67.35
6128;BME280;7073;42.672;23.256;2023-10-13T19:53:53;94832.03;;;15.67;66.70
6128;BME280;7073;42.672;23.256;2023-10-13T19:56:20;94806.78;;;15.26;66.70
6128;BME280;7073;42.672;23.256;2023-10-13T19:58:48;94827.50;;;15.39;67.33
6128;BME280;7073;42.672;23.256;2023-10-13T20:01:17;94832.16;;;15.60;66.48
6128;BME280;7073;42.672;23.256;2023-10-13T20:03:45;94840.00;;;15.72;66.82
6128;BME280;7073;42.672;23.256;2023-10-13T20:06:12;94844.53;;;15.48;68.02
6128;BME280;7073;42.672;23.256;2023-10-13T20:08:45;94843.28;;;15.39;67.69
6128;BME280;7073;42.672;23.256;2023-10-13T20:11:16;94844.31;;;15.38;69.54
6128;BME280;7073;42.672;23.256;2023-10-13T20:13:44;94832.94;;;15.09;69.71
6128;BME280;7073;42.672;23.256;2023-10-13T20:16:12;94854.88;;;15.03;71.05
6128;BME280;7073;42.672;23.256;2023-10-13T20:18:45;94841.59;;;15.21;70.38
6128;BME280;7073;42.672;23.256;2023-10-13T20:21:13;94847.88;;;15.20;70.15
6128;BME280;7073;42.672;23.256;2023-10-13T20:23:41;94822.34;;;15.04;69.56
6128;BME280;7073;42.672;23.256;2023-10-13T20:26:08;94835.34;;;14.99;69.36
6128;BME280;7073;42.672;23.256;2023-10-13T20:28:36;94839.22;;;15.08;69.60
6128;BME280;7073;42.672;23.256;2023-10-13T20:31:05;94843.31;;;15.16;68.34
6128;BME280;7073;42.672;23.256;2023-10-13T20:33:32;94847.56;;;15.17;67.66
6128;BME280;7073;42.672;23.256;2023-10-13T20:36:00;94843.19;;;15.22;67.63
6128;BME280;7073;42.672;23.256;2023-10-13T20:38:30;94842.94;;;15.47;67.22
6128;BME280;7073;42.672;23.256;2023-10-13T20:40:58;94840.19;;;15.54;66.90
6128;BME280;7073;42.672;23.256;2023-10-13T20:43:29;94839.66;;;15.28;69.41
6128;BME280;7073;42.672;23.256;2023-10-13T20:45:57;94842.06;;;15.18;70.64
6128;BME280;7073;42.672;23.256;2023-10-13T20:48:27;94841.03;;;15.19;70.23
6128;BME280;7073;42.672;23.256;2023-10-13T20:50:56;94846.19;;;15.03;71.11
6128;BME280;7073;42.672;23.256;2023-10-13T20:53:24;94840.16;;;14.79;72.55
6128;BME280;7073;42.672;23.256;2023-10-13T20:56:00;94841.19;;;14.55;74.24
6128;BME280;7073;42.672;23.256;2023-10-13T20:58:27;94835.47;;;14.35;74.89
6128;BME280;7073;42.672;23.256;2023-10-13T21:00:53;94825.78;;;14.47;74.73
6128;BME280;7073;42.672;23.256;2023-10-13T21:03:22;94836.03;;;14.37;74.41
6128;BME280;7073;42.672;23.256;2023-10-13T21:05:50;94820.75;;;14.34;74.64
6128;BME280;7073;42.672;23.256;2023-10-13T21:08:19;94838.69;;;14.48;73.74
6128;BME280;7073;42.672;23.256;2023-10-13T21:10:46;94826.00;;;14.34;74.40
6128;BME280;7073;42.672;23.256;2023-10-13T21:13:14;94819.41;;;14.31;74.44
6128;BME280;7073;42.672;23.256;2023-10-13T21:15:40;94815.19;;;14.42;74.19
6128;BME280;7073;42.672;23.256;2023-10-13T21:18:08;94833.09;;;14.45;74.26
6128;BME280;7073;42.672;23.256;2023-10-13T21:20:36;94828.47;;;14.29;74.62
6128;BME280;7073;42.672;23.256;2023-10-13T21:23:06;94840.44;;;14.25;75.56
6128;BME280;7073;42.672;23.256;2023-10-13T21:25:36;94834.72;;;14.28;76.15
6128;BME280;7073;42.672;23.256;2023-10-13T21:28:07;94835.31;;;14.30;75.64
6128;BME280;7073;42.672;23.256;2023-10-13T21:30:34;94836.91;;;14.19;76.03
6128;BME280;7073;42.672;23.256;2023-10-13T21:33:02;94825.19;;;14.33;75.06
6128;BME280;7073;42.672;23.256;2023-10-13T21:35:30;94830.94;;;14.12;76.11
6128;BME280;7073;42.672;23.256;2023-10-13T21:38:00;94824.19;;;14.34;74.59
6128;BME280;7073;42.672;23.256;2023-10-13T21:40:28;94819.97;;;14.45;73.70
6128;BME280;7073;42.672;23.256;2023-10-13T21:42:56;94825.66;;;14.42;72.76
6128;BME280;7073;42.672;23.256;2023-10-13T21:45:24;94830.47;;;14.45;72.97
6128;BME280;7073;42.672;23.256;2023-10-13T21:47:51;94822.59;;;14.45;72.50
6128;BME280;7073;42.672;23.256;2023-10-13T21:50:18;94814.28;;;14.48;71.82
6128;BME280;7073;42.672;23.256;2023-10-13T21:52:46;94818.72;;;14.47;71.89
6128;BME280;7073;42.672;23.256;2023-10-13T21:55:15;94800.63;;;14.46;73.00
6128;BME280;7073;42.672;23.256;2023-10-13T21:57:44;94812.97;;;14.16;75.23